Time;durP1;ratioP1;P1;durP2;ratioP2;P2;SDS_P1;SDS_P2;PMS_P1;PMS_P2;Temp;Humidity;BMP_temperature;BMP_pressure;BME280_temperature;BME280_humidity;BME280_pressure;Samples;Min_cycle;Max_cycle;Signal;HPM_P1;HPM_P2
2022/04/13 00:00:08;;;;;;;0.00;0.00;;;14.70;87.70;;;;;;5054054;28;20134;-82
2022/04/13 00:02:33;;;;;;;0.00;0.00;;;14.60;87.90;;;;;;5053733;28;20055;-82
2022/04/13 00:04:59;;;;;;;0.00;0.00;;;14.60;89.10;;;;;;5052515;28;20041;-82
2022/04/13 00:07:25;;;;;;;0.00;0.00;;;14.60;88.50;;;;;;5037647;28;20416;-82
2022/04/13 00:09:50;;;;;;;0.20;0.10;;;14.50;87.70;;;;;;5053910;28;20505;-82
2022/04/13 00:12:16;;;;;;;0.00;0.00;;;14.50;88.80;;;;;;5053754;28;20496;-82
2022/04/13 00:14:42;;;;;;;0.00;0.00;;;14.40;87.00;;;;;;5053896;28;20115;-82
2022/04/13 00:17:07;;;;;;;0.00;0.00;;;14.50;86.70;;;;;;5053400;28;20041;-82
2022/04/13 00:19:33;;;;;;;0.00;0.00;;;14.50;87.30;;;;;;5037202;28;20451;-82
2022/04/13 00:21:59;;;;;;;0.10;0.10;;;14.60;87.50;;;;;;5054093;28;20459;-82
2022/04/13 00:24:25;;;;;;;0.20;0.20;;;14.50;87.40;;;;;;5053472;28;20044;-82
2022/04/13 00:26:51;;;;;;;0.00;0.00;;;14.50;87.30;;;;;;5053578;28;20123;-82
2022/04/13 00:29:17;;;;;;;0.00;0.00;;;14.50;87.20;;;;;;5036466;28;20148;-82
2022/04/13 00:31:43;;;;;;;0.10;0.00;;;14.50;87.10;;;;;;5036730;28;20056;-82
2022/04/13 00:34:08;;;;;;;0.20;0.10;;;14.50;87.20;;;;;;5036588;28;20056;-82
2022/04/13 00:36:34;;;;;;;0.10;0.10;;;14.60;87.40;;;;;;5036765;28;20147;-82
2022/04/13 00:38:59;;;;;;;0.00;0.00;;;14.50;87.70;;;;;;5053332;28;20076;-82
2022/04/13 00:41:26;;;;;;;0.00;0.00;;;14.60;87.70;;;;;;5036563;28;20386;-82
2022/04/13 00:44:09;;;;;;;0.05;0.05;;;14.50;87.30;;;;;;5053203;28;20045;-82
2022/04/13 00:46:35;;;;;;;0.10;0.10;;;14.60;87.30;;;;;;5053455;28;20048;-81
2022/04/13 00:49:04;;;;;;;0.00;0.00;;;14.60;87.70;;;;;;5053281;28;20090;-82
2022/04/13 00:51:30;;;;;;;0.00;0.00;;;14.50;87.60;;;;;;5036827;28;20048;-82
2022/04/13 00:54:00;;;;;;;0.00;0.00;;;14.50;88.10;;;;;;5053137;28;20400;-82
2022/04/13 00:56:28;;;;;;;0.00;0.00;;;14.50;87.90;;;;;;5036389;28;20131;-82
2022/04/13 00:59:10;;;;;;;0.00;0.00;;;14.50;88.20;;;;;;5036307;28;20048;-82
2022/04/13 01:01:42;;;;;;;0.00;0.00;;;14.60;88.20;;;;;;5052900;28;20048;-82
2022/04/13 01:04:11;;;;;;;0.20;0.10;;;14.60;88.20;;;;;;5036340;28;20056;-82
2022/04/13 01:06:38;;;;;;;0.10;0.10;;;14.50;88.00;;;;;;5052931;28;20045;-82
2022/04/13 01:09:04;;;;;;;0.00;0.00;;;14.50;87.90;;;;;;5052704;28;20041;-82
2022/04/13 01:11:30;;;;;;;1.17;0.20;;;14.50;88.50;;;;;;5035844;28;20043;-82
2022/04/13 01:13:56;;;;;;;0.10;0.10;;;14.50;88.80;;;;;;5036619;28;20065;-82
2022/04/13 01:16:23;;;;;;;0.00;0.00;;;14.50;88.50;;;;;;5035728;28;20127;-82
2022/04/13 01:18:50;;;;;;;0.00;0.00;;;14.50;89.40;;;;;;5052687;28;20045;-82
2022/04/13 01:21:19;;;;;;;0.00;0.00;;;14.40;89.10;;;;;;5052627;28;20566;-82
2022/04/13 01:23:45;;;;;;;0.00;0.00;;;14.30;89.80;;;;;;5052544;28;20135;-82
2022/04/13 01:26:12;;;;;;;0.00;0.00;;;14.30;89.80;;;;;;5052033;28;20102;-83
2022/04/13 01:28:39;;;;;;;0.00;0.00;;;14.20;90.10;;;;;;5052111;28;20063;-82
2022/04/13 01:31:05;;;;;;;0.00;0.00;;;14.20;90.50;;;;;;5052035;28;20048;-82
2022/04/13 01:33:31;;;;;;;0.00;0.00;;;14.10;90.80;;;;;;5052782;28;20041;-82
2022/04/13 01:36:01;;;;;;;0.00;0.00;;;14.10;90.90;;;;;;5052541;28;20044;-83
2022/04/13 01:38:30;;;;;;;0.00;0.00;;;14.00;91.40;;;;;;5035957;28;20068;-82
2022/04/13 01:40:57;;;;;;;0.00;0.00;;;13.90;91.70;;;;;;5035911;28;20128;-82
2022/04/13 01:43:24;;;;;;;0.93;0.45;;;13.80;91.70;;;;;;5052182;28;20124;-82
2022/04/13 01:45:50;;;;;;;0.10;0.00;;;13.80;91.30;;;;;;5035477;28;20045;-82
2022/04/13 01:48:16;;;;;;;0.00;0.00;;;13.70;91.80;;;;;;5052396;28;20496;-82
2022/04/13 01:50:42;;;;;;;0.00;0.00;;;13.70;91.80;;;;;;5052192;28;20152;-82
2022/04/13 01:53:08;;;;;;;0.00;0.00;;;13.60;91.80;;;;;;5052266;28;20160;-82
2022/04/13 01:55:34;;;;;;;0.00;0.00;;;13.60;92.00;;;;;;5035946;28;20061;-82
2022/04/13 01:58:00;;;;;;;0.00;0.00;;;13.60;92.10;;;;;;5052273;28;20480;-82
2022/04/13 02:00:25;;;;;;;0.00;0.00;;;13.60;92.10;;;;;;5052267;28;20133;-82
2022/04/13 02:02:53;;;;;;;0.00;0.00;;;13.50;92.50;;;;;;5052258;28;20039;-82
2022/04/13 02:05:19;;;;;;;0.98;0.28;;;13.50;92.70;;;;;;5035363;28;20053;-82
2022/04/13 02:07:44;;;;;;;0.00;0.00;;;13.40;92.40;;;;;;5051811;28;20057;-82
2022/04/13 02:10:10;;;;;;;0.52;0.25;;;13.30;92.70;;;;;;5036202;28;20138;-83
2022/04/13 02:12:37;;;;;;;0.00;0.00;;;13.30;93.00;;;;;;5051708;28;20092;-82
2022/04/13 02:15:04;;;;;;;0.00;0.00;;;13.30;92.90;;;;;;5052228;28;20048;-82
2022/04/13 02:17:30;;;;;;;0.00;0.00;;;13.30;93.00;;;;;;5035574;28;20136;-82
2022/04/13 02:19:55;;;;;;;0.10;0.10;;;13.30;93.00;;;;;;5052099;28;20120;-82
2022/04/13 02:22:21;;;;;;;0.00;0.00;;;13.20;93.20;;;;;;5051967;28;20117;-82
2022/04/13 02:24:47;;;;;;;3.40;0.00;;;13.10;93.20;;;;;;5035264;28;20082;-82
2022/04/13 02:27:13;;;;;;;0.10;0.10;;;13.10;93.80;;;;;;5036520;28;20056;-82
2022/04/13 02:29:40;;;;;;;0.00;0.00;;;13.10;94.10;;;;;;5055183;28;20055;-82
2022/04/13 02:32:06;;;;;;;0.00;0.00;;;13.00;94.00;;;;;;5039018;28;20408;-82
2022/04/13 02:34:33;;;;;;;0.00;0.00;;;13.00;93.90;;;;;;5055464;28;20435;-82
2022/04/13 02:36:59;;;;;;;0.00;0.00;;;13.00;93.90;;;;;;5038937;28;20053;-82
2022/04/13 02:39:25;;;;;;;0.00;0.00;;;12.90;94.20;;;;;;5055754;28;20053;-82
2022/04/13 02:41:51;;;;;;;0.00;0.00;;;12.80;94.30;;;;;;5055579;28;20132;-82
2022/04/13 02:44:16;;;;;;;0.00;0.00;;;12.90;94.40;;;;;;5055004;28;20489;-82
2022/04/13 02:46:44;;;;;;;0.10;0.10;;;12.80;94.50;;;;;;5055432;28;20045;-83
2022/04/13 02:49:11;;;;;;;0.00;0.00;;;12.80;94.40;;;;;;5054660;28;20057;-82
2022/04/13 02:51:36;;;;;;;0.00;0.00;;;12.70;94.70;;;;;;5038541;28;20501;-82
2022/04/13 02:54:03;;;;;;;0.00;0.00;;;12.80;94.90;;;;;;5039012;28;20072;-82
2022/04/13 02:56:28;;;;;;;0.00;0.00;;;12.70;94.90;;;;;;5038797;28;20053;-82
2022/04/13 02:58:54;;;;;;;0.00;0.00;;;12.70;95.00;;;;;;5055235;28;20389;-82
2022/04/13 03:01:19;;;;;;;0.00;0.00;;;12.60;94.80;;;;;;5038165;28;20114;-82
2022/04/13 03:03:45;;;;;;;0.00;0.00;;;12.60;95.20;;;;;;5038164;28;20044;-83
2022/04/13 03:06:11;;;;;;;0.00;0.00;;;12.50;94.90;;;;;;5055521;28;20041;-82
2022/04/13 03:08:36;;;;;;;0.00;0.00;;;12.50;95.40;;;;;;5038610;28;20587;-83
2022/04/13 03:11:03;;;;;;;0.17;0.00;;;12.40;95.80;;;;;;5055002;28;20369;-82
2022/04/13 03:13:28;;;;;;;0.00;0.00;;;12.40;96.00;;;;;;5055002;28;20049;-83
2022/04/13 03:15:54;;;;;;;0.00;0.00;;;12.40;96.00;;;;;;5054278;28;20056;-83
2022/04/13 03:18:20;;;;;;;0.20;0.20;;;12.30;96.10;;;;;;5038072;28;20067;-83
2022/04/13 03:20:45;;;;;;;0.00;0.00;;;12.30;96.10;;;;;;5054551;28;20088;-82
2022/04/13 03:23:11;;;;;;;0.00;0.00;;;12.30;96.40;;;;;;5054866;28;20049;-83
2022/04/13 03:25:37;;;;;;;0.00;0.00;;;12.30;96.20;;;;;;5038475;28;20400;-82
2022/04/13 03:28:03;;;;;;;0.10;0.10;;;12.30;96.20;;;;;;5037515;28;20496;-82
2022/04/13 03:30:28;;;;;;;0.00;0.00;;;12.30;95.70;;;;;;5036918;28;20057;-83
2022/04/13 03:32:54;;;;;;;0.20;0.00;;;12.30;96.00;;;;;;5037083;28;20045;-82
2022/04/13 03:35:22;;;;;;;0.00;0.00;;;12.40;96.10;;;;;;5052901;28;20409;-82
2022/04/13 03:37:48;;;;;;;0.30;0.00;;;12.30;95.00;;;;;;5054385;28;20063;-82
2022/04/13 03:40:13;;;;;;;0.10;0.03;;;12.30;96.00;;;;;;5038131;28;20144;-83
2022/04/13 03:42:40;;;;;;;0.10;0.00;;;12.20;96.30;;;;;;5037899;28;20045;-82
2022/04/13 03:45:11;;;;;;;0.00;0.00;;;12.20;96.10;;;;;;5054246;28;20131;-83
2022/04/13 03:47:41;;;;;;;0.00;0.00;;;12.10;96.20;;;;;;5037657;28;20053;-82
2022/04/13 03:50:08;;;;;;;0.75;0.00;;;12.10;95.80;;;;;;5053798;28;20044;-83
2022/04/13 03:52:35;;;;;;;0.00;0.00;;;12.00;96.00;;;;;;5037308;28;20068;-83
2022/04/13 03:55:04;;;;;;;0.30;0.00;;;12.00;96.00;;;;;;5037491;28;20556;-83
2022/04/13 03:57:29;;;;;;;0.10;0.10;;;12.00;96.60;;;;;;5037419;28;20065;-83
2022/04/13 03:59:55;;;;;;;0.20;0.20;;;12.10;97.00;;;;;;5054065;28;20086;-83
2022/04/13 04:02:21;;;;;;;0.13;0.10;;;12.00;96.80;;;;;;5053697;28;20107;-82
2022/04/13 04:04:47;;;;;;;0.28;0.10;;;12.10;96.70;;;;;;5036921;28;20496;-83
2022/04/13 04:07:12;;;;;;;0.10;0.10;;;12.00;97.30;;;;;;5053612;28;20059;-83
2022/04/13 04:09:38;;;;;;;0.08;0.00;;;12.10;97.40;;;;;;5054220;28;20128;-82
2022/04/13 04:12:04;;;;;;;0.05;0.00;;;12.10;97.20;;;;;;5037095;28;20067;-83
2022/04/13 04:14:30;;;;;;;0.00;0.00;;;12.10;97.50;;;;;;5037162;28;20064;-82
2022/04/13 04:16:55;;;;;;;0.08;0.08;;;12.10;97.30;;;;;;5037055;28;20056;-82
2022/04/13 04:19:21;;;;;;;0.20;0.10;;;12.10;97.30;;;;;;5053885;28;20048;-84
2022/04/13 04:21:47;;;;;;;0.00;0.00;;;12.10;97.40;;;;;;5036984;28;20072;-83
2022/04/13 04:24:13;;;;;;;0.00;0.00;;;12.10;97.60;;;;;;5040688;28;20127;-83
2022/04/13 04:26:38;;;;;;;0.00;0.00;;;12.10;97.90;;;;;;5073564;28;20044;-82
2022/04/13 04:29:04;;;;;;;0.10;0.10;;;12.20;97.80;;;;;;5073009;28;20055;-83
2022/04/13 04:34:19;;;;;;;0.00;0.00;;;12.00;97.70;;;;;;5073573;28;20094;-83
2022/04/13 04:36:45;;;;;;;0.00;0.00;;;12.00;98.20;;;;;;5072808;28;20056;-83
2022/04/13 04:39:11;;;;;;;0.00;0.00;;;11.90;98.20;;;;;;5073242;28;20047;-83
2022/04/13 04:41:37;;;;;;;0.05;0.00;;;11.90;98.20;;;;;;5056754;28;20044;-83
2022/04/13 04:44:03;;;;;;;0.15;0.15;;;11.90;98.00;;;;;;5073060;28;20056;-82
2022/04/13 04:46:28;;;;;;;0.00;0.00;;;11.90;98.10;;;;;;5072859;28;20040;-82
2022/04/13 04:48:54;;;;;;;0.10;0.10;;;11.90;97.90;;;;;;5056314;28;20056;-82
2022/04/13 04:51:20;;;;;;;0.00;0.00;;;11.90;98.30;;;;;;5055820;28;20396;-82
2022/04/13 04:53:49;;;;;;;0.00;0.00;;;11.80;98.10;;;;;;5073067;28;20135;-82
2022/04/13 04:56:15;;;;;;;0.45;0.17;;;11.90;98.20;;;;;;5056260;28;20041;-82
2022/04/13 04:58:41;;;;;;;0.60;0.30;;;11.90;98.40;;;;;;5073171;28;20049;-82
2022/04/13 05:01:06;;;;;;;0.17;0.10;;;11.90;98.40;;;;;;5072622;28;20105;-83
2022/04/13 05:03:33;;;;;;;0.00;0.00;;;11.90;98.50;;;;;;5056142;28;20059;-83
2022/04/13 05:05:59;;;;;;;0.17;0.00;;;12.00;98.30;;;;;;5072652;28;20040;-83
2022/04/13 05:08:25;;;;;;;0.10;0.10;;;12.00;98.70;;;;;;5072877;28;20040;-83
2022/04/13 05:10:53;;;;;;;0.00;0.00;;;11.90;98.80;;;;;;5072766;28;20044;-83
2022/04/13 05:13:21;;;;;;;0.00;0.00;;;11.90;98.80;;;;;;5072974;28;20055;-82
2022/04/13 05:15:47;;;;;;;0.00;0.00;;;12.00;98.70;;;;;;5072938;28;20161;-82
2022/04/13 05:18:13;;;;;;;0.00;0.00;;;12.00;99.00;;;;;;5072754;28;20487;-83
2022/04/13 05:20:40;;;;;;;0.00;0.00;;;12.10;99.10;;;;;;5072585;28;20080;-82
2022/04/13 05:23:06;;;;;;;0.00;0.00;;;12.10;98.80;;;;;;5072891;28;20052;-83
2022/04/13 05:25:33;;;;;;;0.35;0.20;;;12.10;98.90;;;;;;5072183;28;20090;-82
2022/04/13 05:27:59;;;;;;;0.08;0.08;;;12.20;99.10;;;;;;5055694;28;20049;-83
2022/04/13 05:30:24;;;;;;;0.08;0.03;;;12.30;99.10;;;;;;5055500;28;20044;-83
2022/04/13 05:32:58;;;;;;;0.00;0.00;;;12.30;99.40;;;;;;5072187;28;20123;-82
2022/04/13 05:35:28;;;;;;;0.00;0.00;;;12.40;99.60;;;;;;5072852;28;20049;-82
2022/04/13 05:37:54;;;;;;;0.10;0.10;;;12.40;99.40;;;;;;5055527;28;20052;-82
2022/04/13 05:40:21;;;;;;;0.13;0.10;;;12.50;99.30;;;;;;5072433;28;20106;-82
2022/04/13 05:42:47;;;;;;;0.20;0.10;;;12.60;99.20;;;;;;5072244;28;20083;-82
2022/04/13 05:45:14;;;;;;;0.20;0.13;;;12.70;99.50;;;;;;5072345;28;20082;-82
2022/04/13 05:47:44;;;;;;;0.00;0.00;;;12.70;99.10;;;;;;5055602;28;20061;-82
2022/04/13 05:50:11;;;;;;;1.25;0.47;;;12.90;99.00;;;;;;5071735;28;20122;-83
2022/04/13 05:52:37;;;;;;;0.00;0.00;;;12.90;99.40;;;;;;5072232;28;20041;-82
2022/04/13 05:55:03;;;;;;;0.00;0.00;;;13.00;99.20;;;;;;5072543;28;20097;-82
2022/04/13 05:57:29;;;;;;;0.10;0.10;;;13.00;99.00;;;;;;5072163;28;20052;-82
2022/04/13 05:59:55;;;;;;;0.00;0.00;;;13.10;99.30;;;;;;5072446;28;20227;-82
2022/04/13 06:02:21;;;;;;;0.00;0.00;;;13.10;99.40;;;;;;5073819;28;20056;-82
2022/04/13 06:04:47;;;;;;;0.08;0.08;;;13.10;99.40;;;;;;5076110;28;20037;-82
2022/04/13 06:07:13;;;;;;;0.10;0.10;;;13.10;99.20;;;;;;5076069;28;20044;-82
2022/04/13 06:09:38;;;;;;;0.00;0.00;;;13.20;99.20;;;;;;5075899;28;20040;-82
2022/04/13 06:12:04;;;;;;;0.40;0.28;;;13.20;99.10;;;;;;5076641;28;20048;-82
2022/04/13 06:14:30;;;;;;;0.00;0.00;;;13.30;98.90;;;;;;5076000;28;20055;-83
2022/04/13 06:16:56;;;;;;;0.22;0.22;;;13.30;98.90;;;;;;5075636;28;20412;-82
2022/04/13 06:19:21;;;;;;;0.00;0.00;;;13.30;98.90;;;;;;5075966;28;20040;-82
2022/04/13 06:21:47;;;;;;;0.00;0.00;;;13.30;99.20;;;;;;5059242;28;20044;-83
2022/04/13 06:24:13;;;;;;;0.00;0.00;;;13.30;98.90;;;;;;5075879;28;20048;-82
2022/04/13 06:26:38;;;;;;;0.00;0.00;;;13.30;99.10;;;;;;5059018;28;20056;-83
2022/04/13 06:29:04;;;;;;;0.13;0.10;;;13.40;99.00;;;;;;5058495;28;20052;-83
2022/04/13 06:31:30;;;;;;;0.10;0.10;;;13.50;99.20;;;;;;5075661;28;20179;-83
2022/04/13 06:33:56;;;;;;;0.35;0.10;;;13.50;98.80;;;;;;5058949;28;20056;-83
2022/04/13 06:36:22;;;;;;;0.00;0.00;;;13.70;99.00;;;;;;5075583;28;20044;-83
2022/04/13 06:38:47;;;;;;;0.00;0.00;;;14.00;99.20;;;;;;5058702;28;20063;-83
2022/04/13 06:41:13;;;;;;;0.05;0.00;;;14.20;99.00;;;;;;5075545;28;20041;-82
2022/04/13 06:43:40;;;;;;;0.00;0.00;;;14.30;98.40;;;;;;5075911;28;20045;-83
2022/04/13 06:46:07;;;;;;;0.30;0.15;;;14.40;98.30;;;;;;5074224;28;20543;-82
2022/04/13 06:48:33;;;;;;;0.00;0.00;;;14.50;98.20;;;;;;5058772;28;20052;-83
2022/04/13 06:51:00;;;;;;;0.25;0.22;;;14.70;99.10;;;;;;5058490;28;20482;-82
2022/04/13 06:53:26;;;;;;;0.10;0.03;;;15.00;98.50;;;;;;5075356;28;20431;-82
2022/04/13 06:55:52;;;;;;;5.28;0.25;;;15.30;98.50;;;;;;5075060;28;20053;-83
2022/04/13 06:58:19;;;;;;;0.00;0.00;;;15.60;98.20;;;;;;5075672;28;20052;-83
2022/04/13 07:00:45;;;;;;;0.00;0.00;;;15.80;97.00;;;;;;5058637;28;20094;-82
2022/04/13 07:03:11;;;;;;;0.47;0.32;;;15.80;97.20;;;;;;5058106;28;20475;-82
2022/04/13 07:05:37;;;;;;;0.05;0.00;;;16.00;96.70;;;;;;5057871;28;20174;-83
2022/04/13 07:08:04;;;;;;;0.10;0.08;;;16.40;96.70;;;;;;5058357;28;20088;-83
2022/04/13 07:10:30;;;;;;;0.00;0.00;;;16.50;95.80;;;;;;5058330;28;20059;-83
2022/04/13 07:12:57;;;;;;;0.32;0.10;;;16.70;96.00;;;;;;5074910;28;20131;-83
2022/04/13 07:15:23;;;;;;;0.30;0.30;;;16.90;96.40;;;;;;5057819;28;20072;-84
2022/04/13 07:17:49;;;;;;;0.03;0.00;;;17.20;96.00;;;;;;5058292;28;20044;-84
2022/04/13 07:20:16;;;;;;;0.15;0.15;;;17.80;95.80;;;;;;5074722;28;20396;-84
2022/04/13 07:22:43;;;;;;;0.13;0.13;;;18.40;95.50;;;;;;5075399;28;20123;-84
2022/04/13 07:25:09;;;;;;;0.00;0.00;;;19.20;95.00;;;;;;5074661;28;20438;-84
2022/04/13 07:27:34;;;;;;;0.00;0.00;;;19.80;92.90;;;;;;5074581;28;20037;-84
2022/04/13 07:30:00;;;;;;;0.30;0.30;;;20.20;91.50;;;;;;5057529;28;20053;-84
2022/04/13 07:32:26;;;;;;;0.00;0.00;;;20.30;91.80;;;;;;5074760;28;20052;-84
2022/04/13 07:34:51;;;;;;;1.27;0.00;;;20.20;90.60;;;;;;5057484;28;20056;-84
2022/04/13 07:37:17;;;;;;;0.98;0.45;;;19.90;91.10;;;;;;5074499;28;20044;-85
2022/04/13 07:39:43;;;;;;;0.10;0.05;;;19.70;91.10;;;;;;5074514;28;20094;-84
2022/04/13 07:42:09;;;;;;;0.95;0.20;;;19.60;91.40;;;;;;5074104;28;20444;-85
2022/04/13 07:44:34;;;;;;;2.67;0.85;;;19.30;91.10;;;;;;5057710;28;20556;-85
2022/04/13 07:47:00;;;;;;;0.10;0.00;;;19.30;91.90;;;;;;5057710;28;20055;-85
2022/04/13 07:49:26;;;;;;;1.98;0.60;;;19.30;92.00;;;;;;5073921;28;20055;-85
2022/04/13 07:51:51;;;;;;;0.22;0.22;;;19.30;91.50;;;;;;5074698;28;20049;-85
2022/04/13 07:54:17;;;;;;;0.00;0.00;;;19.10;91.70;;;;;;5073670;28;20036;-85
2022/04/13 07:56:43;;;;;;;0.00;0.00;;;18.80;92.40;;;;;;5074265;28;20051;-85
2022/04/13 07:59:08;;;;;;;0.00;0.00;;;18.60;92.60;;;;;;5074140;28;20044;-85
2022/04/13 08:01:34;;;;;;;0.00;0.00;;;18.50;93.20;;;;;;5057409;28;20131;-85
2022/04/13 08:03:59;;;;;;;0.00;0.00;;;18.40;92.80;;;;;;5057281;28;20044;-85
2022/04/13 08:06:25;;;;;;;0.20;0.10;;;18.20;93.20;;;;;;5056883;28;20055;-85
2022/04/13 08:08:52;;;;;;;0.00;0.00;;;18.10;93.90;;;;;;5057124;28;20515;-85
2022/04/13 08:11:18;;;;;;;0.00;0.00;;;18.10;93.90;;;;;;5057075;28;20102;-85
2022/04/13 08:13:43;;;;;;;0.00;0.00;;;18.20;93.60;;;;;;5073697;28;20080;-85
2022/04/13 08:16:09;;;;;;;0.00;0.00;;;18.20;94.00;;;;;;5073844;28;20045;-85
2022/04/13 08:18:35;;;;;;;0.35;0.35;;;18.30;93.80;;;;;;5073626;28;20040;-85
2022/04/13 08:21:02;;;;;;;0.00;0.00;;;18.20;93.80;;;;;;5073591;28;20110;-85
2022/04/13 08:23:28;;;;;;;0.03;0.00;;;18.20;93.60;;;;;;5073950;28;20105;-85
2022/04/13 08:25:54;;;;;;;0.85;0.47;;;18.10;93.40;;;;;;5072701;28;20098;-85
2022/04/13 08:28:19;;;;;;;0.93;0.35;;;17.90;93.50;;;;;;5073334;28;20415;-85
2022/04/13 08:30:45;;;;;;;0.00;0.00;;;17.80;94.10;;;;;;5073449;28;20377;-86
2022/04/13 08:33:11;;;;;;;0.20;0.20;;;17.70;94.10;;;;;;5056334;28;20048;-85
2022/04/13 08:35:36;;;;;;;1.02;0.57;;;17.60;94.20;;;;;;5074138;28;20054;-86
2022/04/13 08:38:02;;;;;;;0.10;0.00;;;17.60;94.40;;;;;;5073321;28;20067;-86
2022/04/13 08:40:33;;;;;;;0.00;0.00;;;17.50;94.30;;;;;;5073371;28;20121;-87
2022/04/13 08:43:10;;;;;;;0.10;0.08;;;17.40;94.50;;;;;;5073067;28;20033;-86
2022/04/13 08:45:47;;;;;;;0.03;0.03;;;17.40;95.30;;;;;;5072593;28;20492;-86
2022/04/13 08:48:19;;;;;;;0.00;0.00;;;17.60;95.00;;;;;;5073348;28;20150;-86
2022/04/13 08:50:45;;;;;;;0.10;0.10;;;17.70;95.60;;;;;;5069497;28;20045;-86
2022/04/13 08:53:14;;;;;;;0.22;0.22;;;17.90;95.10;;;;;;5061539;28;20128;-86
2022/04/13 08:55:51;;;;;;;0.00;0.00;;;18.00;95.10;;;;;;5053012;28;20037;-86
2022/04/13 08:58:49;;;;;;;0.20;0.20;;;18.00;94.50;;;;;;5053500;28;20072;-86
2022/04/13 09:01:27;;;;;;;0.00;0.00;;;18.00;94.60;;;;;;5053412;28;20053;-87
2022/04/13 09:03:57;;;;;;;0.00;0.00;;;17.90;94.80;;;;;;5036337;28;20524;-87
2022/04/13 09:06:25;;;;;;;0.57;0.47;;;17.90;95.00;;;;;;5052595;28;20045;-86
2022/04/13 09:08:58;;;;;;;0.10;0.10;;;18.10;95.70;;;;;;5036088;28;20056;-87
2022/04/13 09:11:24;;;;;;;0.20;0.17;;;18.30;95.60;;;;;;5052644;28;20485;-86
2022/04/13 09:13:51;;;;;;;0.25;0.25;;;18.60;94.60;;;;;;5052729;28;20045;-86
2022/04/13 09:16:17;;;;;;;0.00;0.00;;;18.70;94.30;;;;;;5036149;28;20048;-86
2022/04/13 09:18:43;;;;;;;0.35;0.03;;;18.80;94.60;;;;;;5052684;28;20373;-86
2022/04/13 09:21:12;;;;;;;0.10;0.00;;;18.70;93.60;;;;;;5052578;28;20040;-86
2022/04/13 09:23:38;;;;;;;0.00;0.00;;;18.60;94.00;;;;;;5052819;28;20447;-86
2022/04/13 09:26:05;;;;;;;0.10;0.08;;;18.60;94.20;;;;;;5035975;28;20116;-86
2022/04/13 09:28:31;;;;;;;0.77;0.22;;;18.70;94.50;;;;;;5052341;28;20045;-85
2022/04/13 09:30:57;;;;;;;0.00;0.00;;;19.00;94.70;;;;;;5036093;28;20148;-85
2022/04/13 09:33:24;;;;;;;0.00;0.00;;;19.20;94.90;;;;;;5035815;28;20041;-85
2022/04/13 09:35:50;;;;;;;0.00;0.00;;;19.40;93.90;;;;;;5035703;28;20053;-85
2022/04/13 09:38:19;;;;;;;0.08;0.00;;;19.50;94.30;;;;;;5035578;28;20060;-85
2022/04/13 09:40:45;;;;;;;0.00;0.00;;;19.60;92.90;;;;;;5036922;28;20443;-85
2022/04/13 09:43:16;;;;;;;0.25;0.25;;;19.50;92.30;;;;;;5052293;28;20041;-85
2022/04/13 09:45:44;;;;;;;0.00;0.00;;;19.40;92.70;;;;;;5052244;28;20063;-85
2022/04/13 09:48:12;;;;;;;0.10;0.00;;;19.30;92.60;;;;;;5035680;28;20175;-85
2022/04/13 09:50:39;;;;;;;1.02;0.50;;;19.20;93.70;;;;;;5052438;28;20673;-85
2022/04/13 09:53:06;;;;;;;0.00;0.00;;;19.10;93.20;;;;;;5052362;28;20144;-85
2022/04/13 09:55:43;;;;;;;0.00;0.00;;;19.10;93.90;;;;;;5052217;28;20053;-85
2022/04/13 09:58:14;;;;;;;0.00;0.00;;;19.30;93.60;;;;;;5035763;28;20098;-85
2022/04/13 10:00:42;;;;;;;2.65;0.17;;;19.50;93.20;;;;;;5052280;28;20063;-85
2022/04/13 10:03:12;;;;;;;0.00;0.00;;;19.90;93.90;;;;;;5035608;28;20139;-86
2022/04/13 10:05:40;;;;;;;0.65;0.20;;;20.10;93.80;;;;;;5035478;28;20049;-86
2022/04/13 10:08:09;;;;;;;0.10;0.10;;;20.40;92.90;;;;;;5052077;28;20485;-86
2022/04/13 10:10:39;;;;;;;0.52;0.20;;;20.30;92.10;;;;;;5052175;28;20045;-86
2022/04/13 10:13:04;;;;;;;0.00;0.00;;;20.20;91.90;;;;;;5052047;28;20048;-85
2022/04/13 10:15:30;;;;;;;0.00;0.00;;;20.30;92.10;;;;;;5035168;28;20051;-85
2022/04/13 10:18:01;;;;;;;0.00;0.00;;;20.40;92.80;;;;;;5052319;28;20048;-85
2022/04/13 10:20:46;;;;;;;0.20;0.15;;;20.40;92.20;;;;;;5035943;28;20056;-85
2022/04/13 10:23:13;;;;;;;0.05;0.05;;;20.30;91.70;;;;;;5035721;28;20061;-86
2022/04/13 10:25:40;;;;;;;0.15;0.15;;;20.20;91.80;;;;;;5034410;28;20204;-86
2022/04/13 10:28:05;;;;;;;0.00;0.00;;;20.00;92.10;;;;;;5051901;28;20136;-86
2022/04/13 10:30:35;;;;;;;0.00;0.00;;;19.90;92.50;;;;;;5051578;28;20092;-86
2022/04/13 10:33:02;;;;;;;0.00;0.00;;;19.90;92.50;;;;;;5035101;28;20060;-86
2022/04/13 10:35:29;;;;;;;0.00;0.00;;;19.80;92.70;;;;;;5035319;28;20122;-85
2022/04/13 10:37:55;;;;;;;0.00;0.00;;;19.80;92.20;;;;;;5051884;28;20044;-85
2022/04/13 10:40:26;;;;;;;0.05;0.05;;;19.80;92.50;;;;;;5051681;28;20044;-85
2022/04/13 10:42:53;;;;;;;0.20;0.20;;;19.80;92.40;;;;;;5035671;28;20068;-86
2022/04/13 10:45:19;;;;;;;0.00;0.00;;;19.80;92.50;;;;;;5051776;28;20052;-86
2022/04/13 10:48:00;;;;;;;0.10;0.00;;;19.70;91.30;;;;;;5052244;28;20052;-86
2022/04/13 10:50:48;;;;;;;0.43;0.30;;;19.80;91.40;;;;;;5038697;28;20053;-85
2022/04/13 10:53:29;;;;;;;0.00;0.00;;;19.80;91.90;;;;;;5055549;28;20075;-85
2022/04/13 10:56:06;;;;;;;0.00;0.00;;;19.90;91.50;;;;;;5055503;28;20089;-85
2022/04/13 10:59:00;;;;;;;0.15;0.10;;;19.90;91.40;;;;;;5038866;28;20044;-86
2022/04/13 11:01:30;;;;;;;0.00;0.00;;;19.90;91.10;;;;;;5054893;28;20401;-85
2022/04/13 11:03:57;;;;;;;0.00;0.00;;;19.80;90.60;;;;;;5055240;28;20048;-86
2022/04/13 11:06:24;;;;;;;0.00;0.00;;;19.70;91.40;;;;;;5054687;28;20127;-85
2022/04/13 11:09:28;;;;;;;0.00;0.00;;;19.70;91.50;;;;;;5055284;28;20087;-86
2022/04/13 11:11:56;;;;;;;0.00;0.00;;;19.60;91.50;;;;;;4981828;28;20053;-85
2022/04/13 11:14:24;;;;;;;0.00;0.00;;;19.50;91.50;;;;;;4981716;28;20548;-85
2022/04/13 11:17:21;;;;;;;0.00;0.00;;;19.50;91.40;;;;;;4997874;28;20061;-85
2022/04/13 11:19:51;;;;;;;0.00;0.00;;;19.60;92.10;;;;;;4981182;28;20062;-85
2022/04/13 11:22:18;;;;;;;0.00;0.00;;;19.60;91.30;;;;;;4997616;28;20042;-86
2022/04/13 11:24:47;;;;;;;0.10;0.10;;;19.50;91.20;;;;;;5013707;28;20488;-85
2022/04/13 11:27:14;;;;;;;0.70;0.10;;;19.40;91.70;;;;;;4981347;28;20085;-85
2022/04/13 11:29:42;;;;;;;0.00;0.00;;;19.40;91.80;;;;;;4996911;28;20049;-85
2022/04/13 11:32:15;;;;;;;0.20;0.20;;;19.30;91.80;;;;;;4997643;28;20061;-85
2022/04/13 11:34:49;;;;;;;0.10;0.10;;;19.20;91.80;;;;;;4997575;28;20050;-86
2022/04/13 11:37:21;;;;;;;0.10;0.10;;;19.10;92.40;;;;;;4997958;28;20096;-85
2022/04/13 11:39:59;;;;;;;0.00;0.00;;;19.00;92.40;;;;;;4981345;28;20501;-85
2022/04/13 11:42:38;;;;;;;0.10;0.08;;;19.00;92.50;;;;;;5018780;28;20059;-86
2022/04/13 11:45:10;;;;;;;0.00;0.00;;;18.90;92.20;;;;;;5038378;28;20045;-85
2022/04/13 11:47:43;;;;;;;0.00;0.00;;;18.80;91.60;;;;;;5038296;28;20131;-85
2022/04/13 11:50:18;;;;;;;0.10;0.10;;;18.60;92.00;;;;;;5054162;28;20049;-85
2022/04/13 11:53:02;;;;;;;;;;;18.50;91.90;;;;;;5038157;28;20045;-85
2022/04/13 11:55:40;;;;;;;0.00;0.00;;;18.50;92.30;;;;;;5037566;28;19921;-85
2022/04/13 11:58:08;;;;;;;0.00;0.00;;;18.50;93.30;;;;;;5038023;28;20416;-85
2022/04/13 12:00:45;;;;;;;0.00;0.00;;;18.60;93.40;;;;;;5052846;28;20055;-85
2022/04/13 12:03:16;;;;;;;0.35;0.20;;;18.70;93.40;;;;;;5037694;28;20052;-85
2022/04/13 12:05:50;;;;;;;0.30;0.22;;;18.80;93.30;;;;;;5053331;28;20049;-86
2022/04/13 12:08:28;;;;;;;0.00;0.00;;;18.80;92.60;;;;;;5054126;28;20060;-86
2022/04/13 12:11:00;;;;;;;0.45;0.10;;;18.80;93.10;;;;;;5037482;28;20053;-86
2022/04/13 12:13:27;;;;;;;0.20;0.20;;;18.90;92.90;;;;;;5036926;28;20512;-86
2022/04/13 12:15:55;;;;;;;0.32;0.10;;;19.00;92.50;;;;;;5037030;28;20049;-85
2022/04/13 12:18:23;;;;;;;0.00;0.00;;;19.10;92.30;;;;;;5054210;28;20049;-86
2022/04/13 12:20:49;;;;;;;0.00;0.00;;;19.30;92.20;;;;;;5053730;28;20055;-86
2022/04/13 12:23:25;;;;;;;0.00;0.00;;;19.40;91.30;;;;;;5037174;28;20127;-86
2022/04/13 12:25:52;;;;;;;0.22;0.00;;;19.40;90.50;;;;;;5053656;28;20045;-86
2022/04/13 12:28:20;;;;;;;0.43;0.00;;;19.40;90.50;;;;;;5053147;28;20053;-85
2022/04/13 12:31:14;;;;;;;0.00;0.00;;;19.40;90.70;;;;;;5036640;28;20140;-85
2022/04/13 12:33:40;;;;;;;0.00;0.00;;;19.30;90.50;;;;;;5053885;28;20041;-85
2022/04/13 12:36:11;;;;;;;0.00;0.00;;;19.30;90.30;;;;;;5036782;28;20045;-85
2022/04/13 12:38:37;;;;;;;0.00;0.00;;;19.20;90.80;;;;;;5036689;28;20064;-85
2022/04/13 12:41:18;;;;;;;0.00;0.00;;;19.20;91.00;;;;;;5053287;28;20136;-85
2022/04/13 12:43:56;;;;;;;0.00;0.00;;;19.20;90.50;;;;;;5036785;28;20037;-85
2022/04/13 12:46:23;;;;;;;0.00;0.00;;;19.20;90.70;;;;;;5036760;28;20392;-85
2022/04/13 12:48:52;;;;;;;0.98;0.43;;;19.10;90.60;;;;;;5053152;28;20127;-85
2022/04/13 12:51:18;;;;;;;0.03;0.03;;;19.00;91.50;;;;;;5053084;28;20053;-85
2022/04/13 12:53:54;;;;;;;0.00;0.00;;;18.80;91.10;;;;;;5052813;28;20110;-85